createdAt,value
2019-01-16T00:02:36.456Z,89.51
2019-01-16T00:05:06.393Z,89.49
2019-01-16T00:07:33.856Z,89.56
2019-01-16T00:10:06.825Z,89.36
2019-01-16T00:12:34.758Z,89.30
2019-01-16T00:15:10.355Z,89.43
2019-01-16T00:17:40.676Z,89.32
2019-01-16T00:20:25.774Z,89.51
2019-01-16T00:23:03.265Z,89.52
2019-01-16T00:25:32.491Z,89.88
2019-01-16T00:28:01.405Z,89.50
2019-01-16T00:30:34.706Z,89.35
2019-01-16T00:33:16.902Z,89.56
2019-01-16T00:35:46.155Z,89.78
2019-01-16T00:38:30.276Z,89.58
2019-01-16T00:41:02.529Z,89.90
2019-01-16T00:43:48.698Z,89.94
2019-01-16T00:46:35.131Z,90.13
2019-01-16T00:49:03.660Z,90.81
2019-01-16T00:54:52.105Z,90.40
2019-01-16T00:57:36.825Z,90.35
2019-01-16T01:00:25.792Z,90.48
2019-01-16T01:02:58.686Z,90.49
2019-01-16T01:05:32.140Z,90.25
2019-01-16T01:08:01.387Z,90.82
2019-01-16T01:10:34.397Z,90.46
2019-01-16T01:13:17.521Z,90.72
2019-01-16T01:16:01.682Z,91.47
2019-01-16T01:18:46.945Z,91.08
2019-01-16T01:21:24.875Z,91.03
2019-01-16T01:24:09.113Z,91.04
2019-01-16T01:26:39.995Z,91.09
2019-01-16T01:29:07.464Z,90.99
2019-01-16T01:31:34.905Z,91.58
2019-01-16T01:34:04.636Z,91.97
2019-01-16T01:36:32.130Z,91.66
2019-01-16T01:39:16.204Z,91.91
2019-01-16T01:41:49.306Z,92.13
2019-01-16T01:44:16.733Z,92.00
2019-01-16T01:46:49.710Z,91.99
2019-01-16T01:49:23.429Z,92.09
2019-01-16T01:52:07.749Z,92.15
2019-01-16T01:54:51.911Z,92.42
2019-01-16T01:57:22.750Z,92.42
2019-01-16T01:59:52.051Z,92.46
2019-01-16T02:02:22.001Z,92.36
2019-01-16T02:04:49.458Z,92.16
2019-01-16T02:07:19.826Z,92.52
2019-01-16T02:09:48.079Z,92.23
2019-01-16T02:12:18.894Z,92.54
2019-01-16T02:15:01.261Z,92.26
2019-01-16T02:17:34.225Z,92.25
2019-01-16T02:20:07.490Z,92.02
2019-01-16T02:22:36.297Z,91.58
2019-01-16T02:25:06.172Z,91.82
2019-01-16T02:27:35.034Z,91.83
2019-01-16T02:30:06.962Z,91.82
2019-01-16T02:32:34.951Z,92.00
2019-01-16T02:35:05.365Z,91.59
2019-01-16T02:37:33.373Z,91.93
2019-01-16T02:40:01.511Z,91.58
2019-01-16T02:42:32.400Z,92.06
2019-01-16T02:45:04.192Z,92.16
2019-01-16T02:47:40.077Z,91.94
2019-01-16T02:50:08.218Z,92.00
2019-01-16T02:52:38.173Z,92.31
2019-01-16T02:55:08.394Z,92.00
2019-01-16T02:57:50.720Z,92.29
2019-01-16T03:00:19.581Z,91.96
2019-01-16T03:02:49.999Z,92.33
2019-01-16T03:05:22.849Z,92.56
2019-01-16T03:08:09.180Z,92.71
2019-01-16T03:10:51.563Z,92.92
2019-01-16T03:13:20.508Z,92.90
2019-01-16T03:15:48.043Z,92.93
2019-01-16T03:18:20.963Z,92.85
2019-01-16T03:20:58.331Z,92.92
2019-01-16T03:23:39.416Z,92.69
2019-01-16T03:26:10.284Z,92.73
2019-01-16T03:28:39.955Z,92.71
2019-01-16T03:31:23.110Z,92.94
2019-01-16T03:34:01.401Z,93.15
2019-01-16T03:36:35.363Z,92.92
2019-01-16T03:39:17.685Z,93.02
2019-01-16T03:41:50.582Z,92.93
2019-01-16T03:44:18.809Z,93.70
2019-01-16T03:46:47.747Z,95.04
2019-01-16T03:49:18.639Z,95.22
2019-01-16T03:52:00.975Z,95.31
2019-01-16T03:54:28.415Z,95.41
2019-01-16T03:57:01.664Z,95.86
2019-01-16T03:59:34.704Z,95.86
2019-01-16T04:02:07.746Z,95.69
2019-01-16T04:04:39.707Z,95.76
2019-01-16T04:07:11.665Z,96.12
2019-01-16T04:09:44.073Z,96.77
2019-01-16T04:12:12.403Z,96.80
2019-01-16T04:14:45.537Z,96.60
2019-01-16T04:17:14.770Z,96.38
2019-01-16T04:19:57.906Z,96.26
2019-01-16T04:22:31.012Z,96.20
2019-01-16T04:24:58.872Z,96.43
2019-01-16T04:27:26.315Z,96.45
2019-01-16T04:29:59.304Z,96.30
2019-01-16T04:32:42.445Z,95.88
2019-01-16T04:35:27.714Z,95.56
2019-01-16T04:37:59.544Z,95.54
2019-01-16T04:40:32.725Z,95.17
2019-01-16T04:43:00.160Z,95.18
2019-01-16T04:45:46.335Z,94.85
2019-01-16T04:48:31.457Z,94.39
2019-01-16T04:51:16.752Z,93.85
2019-01-16T04:54:03.000Z,93.75
2019-01-16T04:56:45.351Z,93.91
2019-01-16T04:59:16.159Z,93.78
2019-01-16T05:01:48.519Z,94.04
2019-01-16T05:04:30.739Z,93.43
2019-01-16T05:07:13.107Z,93.15
2019-01-16T05:09:45.224Z,92.89
2019-01-16T05:12:12.686Z,92.86
2019-01-16T05:14:42.071Z,92.35
2019-01-16T05:17:10.212Z,92.28
2019-01-16T05:19:46.211Z,92.18
2019-01-16T05:22:18.067Z,91.81
2019-01-16T05:24:45.599Z,91.89
2019-01-16T05:27:18.718Z,91.35
2019-01-16T05:29:48.645Z,91.47
2019-01-16T05:32:17.588Z,90.92
2019-01-16T05:34:47.121Z,90.79
2019-01-16T05:37:16.435Z,90.70
2019-01-16T05:39:49.452Z,90.38
2019-01-16T05:42:22.458Z,90.03
2019-01-16T05:44:56.562Z,89.70
2019-01-16T05:47:29.985Z,89.55
2019-01-16T05:49:58.838Z,89.24
2019-01-16T05:52:31.857Z,89.15
2019-01-16T05:55:19.978Z,88.54
2019-01-16T05:57:53.001Z,88.12
2019-01-16T06:00:32.273Z,88.41
2019-01-16T06:03:19.400Z,87.95
2019-01-16T06:05:46.916Z,87.98
2019-01-16T06:08:18.095Z,87.95
2019-01-16T06:10:51.670Z,87.43
2019-01-16T06:13:24.012Z,87.50
2019-01-16T06:15:58.018Z,87.47
2019-01-16T06:18:27.163Z,87.93
2019-01-16T06:21:00.090Z,87.76
2019-01-16T06:23:44.107Z,87.45
2019-01-16T06:26:11.589Z,87.52
2019-01-16T06:28:41.849Z,87.62
2019-01-16T06:31:10.019Z,87.25
2019-01-16T06:33:42.885Z,87.20
2019-01-16T06:36:15.877Z,87.22
2019-01-16T06:38:49.080Z,86.79
2019-01-16T06:41:29.381Z,86.58
2019-01-16T06:44:02.399Z,86.48
2019-01-16T06:46:38.290Z,86.03
2019-01-16T06:49:05.703Z,86.07
2019-01-16T06:51:36.921Z,85.65
2019-01-16T06:54:20.150Z,85.58
2019-01-16T06:57:02.436Z,85.45
2019-01-16T06:59:46.745Z,85.21
2019-01-16T07:02:19.607Z,84.96
2019-01-16T07:05:04.062Z,85.15
2019-01-16T07:07:48.312Z,84.61
2019-01-16T07:10:31.406Z,84.73
2019-01-16T07:13:19.556Z,83.94
2019-01-16T07:15:52.479Z,84.14
2019-01-16T07:18:35.760Z,84.25
2019-01-16T07:21:23.864Z,84.34
2019-01-16T07:23:51.643Z,84.26
2019-01-16T07:26:19.147Z,84.07
2019-01-16T07:29:02.261Z,83.94
2019-01-16T07:31:30.637Z,83.77
2019-01-16T07:34:19.018Z,83.47
2019-01-16T07:36:56.709Z,83.47
2019-01-16T07:39:26.071Z,83.48
2019-01-16T07:42:08.443Z,83.26
2019-01-16T07:44:50.749Z,83.11
2019-01-16T07:47:18.540Z,83.11
2019-01-16T07:49:49.205Z,82.92
2019-01-16T07:52:18.773Z,82.85
2019-01-16T07:54:52.339Z,82.80
2019-01-16T07:57:22.694Z,82.56
2019-01-16T08:00:00.034Z,82.18
2019-01-16T08:02:30.793Z,82.18
2019-01-16T08:05:11.061Z,82.61
2019-01-16T08:07:39.955Z,82.54
2019-01-16T08:10:10.955Z,82.67
2019-01-16T08:12:41.897Z,82.57
2019-01-16T08:15:20.095Z,82.86
2019-01-16T08:18:07.198Z,82.66
2019-01-16T08:20:40.138Z,82.21
2019-01-16T08:23:10.013Z,82.16
2019-01-16T08:25:42.941Z,81.83
2019-01-16T08:28:10.393Z,81.81
2019-01-16T08:30:56.687Z,81.77
2019-01-16T08:33:44.761Z,82.03
2019-01-16T08:36:17.654Z,81.58
2019-01-16T08:39:01.739Z,81.53
2019-01-16T08:41:29.726Z,81.61
2019-01-16T08:44:02.934Z,81.54
2019-01-16T08:46:31.748Z,81.42
2019-01-16T08:49:05.543Z,81.19
2019-01-16T08:51:33.497Z,81.09
2019-01-16T08:54:15.794Z,80.61
2019-01-16T08:56:44.157Z,80.61
2019-01-16T08:59:14.067Z,81.13
2019-01-16T09:01:42.271Z,80.99
2019-01-16T09:04:15.373Z,81.36
2019-01-16T09:06:48.295Z,81.18
2019-01-16T09:09:30.611Z,81.09
2019-01-16T09:12:16.772Z,81.29
2019-01-16T09:15:00.092Z,81.37
2019-01-16T09:17:27.514Z,81.21
2019-01-16T09:19:56.288Z,81.36
2019-01-16T09:22:35.257Z,81.37
2019-01-16T09:25:04.456Z,80.85
2019-01-16T09:27:46.823Z,80.61
2019-01-16T09:30:29.156Z,80.36
2019-01-16T09:33:00.147Z,80.37
2019-01-16T09:35:32.732Z,80.49
2019-01-16T09:38:17.956Z,80.46
2019-01-16T09:40:48.151Z,80.60
2019-01-16T09:43:30.967Z,80.73
2019-01-16T09:45:59.899Z,80.27
2019-01-16T09:48:34.821Z,80.71
2019-01-16T09:51:03.680Z,80.89
2019-01-16T09:53:47.878Z,80.67
2019-01-16T09:56:30.238Z,80.74
2019-01-16T09:59:03.512Z,80.64
2019-01-16T10:01:31.719Z,80.19
2019-01-16T10:04:10.919Z,80.43
2019-01-16T10:06:41.193Z,80.63
2019-01-16T10:09:26.322Z,80.68
2019-01-16T10:11:55.646Z,80.59
2019-01-16T10:14:43.063Z,80.79
2019-01-16T10:17:14.357Z,80.69
2019-01-16T10:19:45.315Z,80.42
2019-01-16T10:22:18.462Z,80.06
2019-01-16T10:25:00.808Z,79.97
2019-01-16T10:27:42.091Z,79.93
2019-01-16T10:30:22.914Z,79.71
2019-01-16T10:32:54.237Z,79.30
2019-01-16T10:35:24.637Z,78.95
2019-01-16T10:37:57.576Z,78.96
2019-01-16T10:40:30.715Z,78.92
2019-01-16T10:43:13.946Z,79.17
2019-01-16T10:45:43.903Z,79.22
2019-01-16T10:48:26.207Z,79.00
2019-01-16T10:50:54.098Z,79.15
2019-01-16T10:53:23.510Z,79.02
2019-01-16T10:55:52.852Z,78.72
2019-01-16T10:58:22.772Z,78.83
2019-01-16T11:00:50.245Z,78.89
2019-01-16T11:03:21.441Z,78.53
2019-01-16T11:05:54.521Z,78.60
2019-01-16T11:08:27.560Z,78.79
2019-01-16T11:10:54.975Z,78.89
2019-01-16T11:13:37.620Z,78.51
2019-01-16T11:16:05.036Z,79.01
2019-01-16T11:18:32.509Z,78.58
2019-01-16T11:21:02.446Z,78.98
2019-01-16T11:23:32.342Z,78.82
2019-01-16T11:26:08.320Z,79.09
2019-01-16T11:28:50.631Z,78.92
2019-01-16T11:31:19.726Z,78.87
2019-01-16T11:34:03.943Z,79.15
2019-01-16T11:36:32.345Z,79.26
2019-01-16T11:39:01.685Z,78.85
2019-01-16T11:41:31.600Z,79.28
2019-01-16T11:44:05.000Z,79.19
2019-01-16T11:46:32.768Z,79.04
2019-01-16T11:49:10.136Z,78.69
2019-01-16T11:51:51.395Z,78.96
2019-01-16T11:54:19.918Z,78.87
2019-01-16T11:56:58.205Z,79.09
2019-01-16T11:59:27.018Z,79.17
2019-01-16T12:01:54.456Z,79.00
2019-01-16T12:04:21.921Z,78.94
2019-01-16T12:06:49.395Z,79.00
2019-01-16T12:09:34.456Z,78.50
2019-01-16T12:12:18.549Z,78.71
2019-01-16T12:14:47.790Z,78.42
2019-01-16T12:17:15.253Z,78.56
2019-01-16T12:19:45.112Z,78.57
2019-01-16T12:22:27.450Z,78.92
2019-01-16T12:25:11.589Z,78.62
2019-01-16T12:27:42.243Z,78.64
2019-01-16T12:30:16.024Z,78.97
2019-01-16T12:32:58.376Z,78.65
2019-01-16T12:35:42.497Z,78.99
2019-01-16T12:38:13.810Z,78.30
2019-01-16T12:40:41.250Z,78.70
2019-01-16T12:43:14.275Z,78.93
2019-01-16T12:45:57.555Z,78.20
2019-01-16T12:48:25.024Z,78.46
2019-01-16T12:50:57.919Z,78.89
2019-01-16T12:53:40.257Z,78.69
2019-01-16T12:56:07.734Z,78.48
2019-01-16T12:58:42.813Z,79.14
2019-01-16T13:01:11.857Z,79.04
2019-01-16T13:03:54.217Z,79.09
2019-01-16T13:06:27.197Z,78.68
2019-01-16T13:08:55.483Z,78.80
2019-01-16T13:11:39.672Z,78.67
2019-01-16T13:14:08.024Z,78.21
2019-01-16T13:16:40.359Z,78.64
2019-01-16T13:19:09.653Z,78.54
2019-01-16T13:21:52.989Z,78.87
2019-01-16T13:24:37.023Z,78.96
2019-01-16T13:27:10.126Z,79.17
2019-01-16T13:29:39.498Z,78.87
2019-01-16T13:32:08.802Z,78.75
2019-01-16T13:34:36.704Z,79.22
2019-01-16T13:37:20.295Z,78.95
2019-01-16T13:39:49.629Z,78.31
2019-01-16T13:42:35.916Z,79.06
2019-01-16T13:45:05.281Z,79.13
2019-01-16T13:47:37.529Z,79.50
2019-01-16T13:50:08.329Z,79.30
2019-01-16T13:52:42.292Z,78.69
2019-01-16T13:55:21.475Z,79.31
2019-01-16T13:57:49.318Z,79.20
2019-01-16T14:00:17.226Z,79.05
2019-01-16T14:02:45.023Z,79.48
2019-01-16T14:05:18.884Z,78.90
2019-01-16T14:07:51.158Z,78.61
2019-01-16T14:10:18.593Z,78.50
2019-01-16T14:13:03.628Z,78.66
2019-01-16T14:15:44.969Z,78.76
2019-01-16T14:18:13.808Z,78.66
2019-01-16T14:20:49.609Z,78.91
2019-01-16T14:23:31.939Z,78.73
2019-01-16T14:26:18.223Z,78.54
2019-01-16T14:28:48.032Z,78.36
2019-01-16T14:31:15.775Z,78.32
2019-01-16T14:33:48.859Z,78.42
2019-01-16T14:36:31.924Z,78.62
2019-01-16T14:39:15.138Z,78.38
2019-01-16T14:41:54.255Z,77.95
2019-01-16T14:44:23.137Z,77.82
2019-01-16T14:46:54.111Z,78.08
2019-01-16T14:49:23.389Z,78.30
2019-01-16T14:52:06.634Z,77.91
2019-01-16T14:54:34.983Z,77.55
2019-01-16T14:57:06.310Z,78.11
2019-01-16T14:59:39.454Z,77.68
2019-01-16T15:02:09.843Z,77.68
2019-01-16T15:04:38.045Z,77.58
2019-01-16T15:07:07.903Z,77.44
2019-01-16T15:09:35.593Z,77.47
2019-01-16T15:12:07.003Z,76.89
2019-01-16T15:14:35.970Z,77.44
2019-01-16T15:17:06.925Z,77.86
2019-01-16T15:19:54.214Z,77.84
2019-01-16T15:22:25.192Z,77.55
2019-01-16T15:25:09.274Z,77.39
2019-01-16T15:27:36.714Z,76.91
2019-01-16T15:30:04.181Z,78.37
2019-01-16T15:32:32.546Z,78.23
2019-01-16T15:35:15.660Z,77.97
2019-01-16T15:37:49.318Z,77.94
2019-01-16T15:40:21.666Z,77.79
2019-01-16T15:42:52.030Z,78.01
2019-01-16T15:45:19.480Z,78.03
2019-01-16T15:47:46.929Z,77.74
2019-01-16T15:50:14.372Z,78.57
2019-01-16T15:52:56.746Z,78.54
2019-01-16T15:55:40.837Z,77.91
2019-01-16T15:58:23.192Z,77.83
2019-01-16T16:01:01.182Z,77.94
2019-01-16T16:03:44.197Z,77.87
2019-01-16T16:06:15.165Z,77.94
2019-01-16T16:08:44.583Z,77.57
2019-01-16T16:11:15.370Z,77.82
2019-01-16T16:13:46.226Z,78.01
2019-01-16T16:16:13.819Z,78.02
2019-01-16T16:19:01.056Z,77.99
2019-01-16T16:21:33.322Z,77.32
2019-01-16T16:24:00.767Z,77.74
2019-01-16T16:26:28.607Z,77.43
2019-01-16T16:29:01.730Z,77.35
2019-01-16T16:31:30.999Z,77.41
2019-01-16T16:33:59.667Z,77.12
2019-01-16T16:36:33.510Z,77.67
2019-01-16T16:39:15.845Z,77.33
2019-01-16T16:41:45.798Z,77.22
2019-01-16T16:44:13.366Z,77.04
2019-01-16T16:46:58.456Z,76.71
2019-01-16T16:49:26.433Z,76.27
2019-01-16T16:52:07.645Z,76.85
2019-01-16T16:54:42.148Z,77.08
2019-01-16T16:57:10.011Z,77.24
2019-01-16T16:59:54.267Z,77.12
2019-01-16T17:02:38.625Z,77.46
2019-01-16T17:05:06.144Z,77.64
2019-01-16T17:07:33.617Z,77.34
2019-01-16T17:10:01.061Z,77.82
2019-01-16T17:12:34.245Z,77.01
2019-01-16T17:15:07.493Z,76.77
2019-01-16T17:17:46.578Z,77.35
2019-01-16T17:20:29.872Z,77.10
2019-01-16T17:23:13.013Z,77.25
2019-01-16T17:25:50.411Z,77.34
2019-01-16T17:28:18.897Z,77.19
2019-01-16T17:30:51.991Z,76.68
2019-01-16T17:33:22.005Z,76.21
2019-01-16T17:35:55.187Z,76.90
2019-01-16T17:38:26.393Z,76.56
2019-01-16T17:41:13.594Z,76.26
2019-01-16T17:43:42.664Z,76.57
2019-01-16T17:46:28.926Z,76.49
2019-01-16T17:48:58.272Z,76.11
2019-01-16T17:51:31.365Z,76.08
2019-01-16T17:54:05.359Z,75.67
2019-01-16T17:56:38.655Z,75.76
2019-01-16T17:59:25.095Z,76.14
2019-01-16T18:01:55.117Z,75.81
2019-01-16T18:04:28.983Z,75.59
2019-01-16T18:07:12.318Z,75.51
2019-01-16T18:09:40.689Z,75.32
2019-01-16T18:12:23.784Z,75.67
2019-01-16T18:14:52.174Z,75.91
2019-01-16T18:17:19.602Z,75.78
2019-01-16T18:19:59.786Z,75.83
2019-01-16T18:22:45.237Z,75.83
2019-01-16T18:25:14.437Z,75.58
2019-01-16T18:27:43.691Z,75.31
2019-01-16T18:30:16.935Z,75.18
2019-01-16T18:32:45.267Z,75.66
2019-01-16T18:35:14.239Z,75.46
2019-01-16T18:37:45.121Z,75.43
2019-01-16T18:40:15.127Z,75.68
2019-01-16T18:42:48.244Z,75.21
2019-01-16T18:45:27.436Z,75.81
2019-01-16T18:48:11.586Z,75.96
2019-01-16T18:50:40.512Z,76.21
2019-01-16T18:53:13.447Z,76.54
2019-01-16T18:55:40.906Z,76.24
2019-01-16T18:58:26.215Z,76.15
2019-01-16T19:01:12.470Z,76.39
2019-01-16T19:03:45.384Z,76.24
2019-01-16T19:06:15.917Z,76.51
2019-01-16T19:08:45.343Z,76.15
2019-01-16T19:11:18.634Z,76.27
2019-01-16T19:13:46.482Z,76.66
2019-01-16T19:16:17.672Z,76.39
2019-01-16T19:18:50.633Z,76.37
2019-01-16T19:21:25.300Z,76.47
2019-01-16T19:24:04.531Z,76.75
2019-01-16T19:26:34.511Z,76.60
2019-01-16T19:29:03.919Z,76.47
2019-01-16T19:31:41.268Z,76.52
2019-01-16T19:34:12.193Z,77.01
2019-01-16T19:36:45.372Z,76.75
2019-01-16T19:39:17.383Z,76.50
2019-01-16T19:41:51.091Z,76.79
2019-01-16T19:44:35.296Z,77.09
2019-01-16T19:47:03.447Z,76.88
2019-01-16T19:49:30.916Z,76.64
2019-01-16T19:51:58.379Z,76.95
2019-01-16T19:54:30.287Z,76.86
2019-01-16T19:56:58.366Z,76.95
2019-01-16T19:59:30.414Z,76.71
2019-01-16T20:02:02.878Z,76.72
2019-01-16T20:04:48.054Z,76.59
2019-01-16T20:07:21.138Z,76.34
2019-01-16T20:09:48.653Z,76.33
2019-01-16T20:12:33.701Z,76.42
2019-01-16T20:15:06.856Z,76.21
2019-01-16T20:17:34.291Z,76.43
2019-01-16T20:20:06.277Z,76.92
2019-01-16T20:22:49.560Z,76.70
2019-01-16T20:25:25.468Z,76.72
2019-01-16T20:28:07.791Z,76.57
2019-01-16T20:30:35.250Z,76.66
2019-01-16T20:33:18.401Z,76.54
2019-01-16T20:35:50.726Z,76.45
2019-01-16T20:38:35.825Z,77.17
2019-01-16T20:41:05.331Z,76.42
2019-01-16T20:43:42.734Z,77.00
2019-01-16T20:46:26.951Z,77.29
2019-01-16T20:49:09.388Z,77.73
2019-01-16T20:51:38.708Z,77.35
2019-01-16T20:54:07.922Z,77.81
2019-01-16T20:56:36.266Z,77.86
2019-01-16T20:59:05.327Z,77.69
2019-01-16T21:01:35.855Z,77.99
2019-01-16T21:04:05.682Z,77.81
2019-01-16T21:06:54.393Z,78.30
2019-01-16T21:09:24.681Z,77.92
2019-01-16T21:11:53.973Z,78.59
2019-01-16T21:14:41.235Z,78.96
2019-01-16T21:17:14.961Z,78.53
2019-01-16T21:19:59.941Z,79.31
2019-01-16T21:22:33.527Z,79.75
2019-01-16T21:25:03.016Z,79.40
2019-01-16T21:27:48.975Z,79.48
2019-01-16T21:30:33.192Z,79.68
2019-01-16T21:33:21.558Z,79.73
2019-01-16T21:35:49.401Z,79.69
2019-01-16T21:38:22.558Z,80.24
2019-01-16T21:40:55.625Z,80.47
2019-01-16T21:43:28.555Z,80.44
2019-01-16T21:45:55.998Z,80.76
2019-01-16T21:48:23.442Z,80.25
2019-01-16T21:50:53.886Z,80.18
2019-01-16T21:53:30.331Z,80.52
2019-01-16T21:56:13.820Z,80.31
2019-01-16T21:58:47.193Z,80.27
2019-01-16T22:01:16.048Z,80.89
2019-01-16T22:03:50.051Z,80.64
2019-01-16T22:06:17.513Z,80.79
2019-01-16T22:08:51.393Z,80.52
2019-01-16T22:11:34.514Z,80.67
2019-01-16T22:14:07.045Z,80.14
2019-01-16T22:16:36.233Z,80.05
2019-01-16T22:19:06.502Z,80.41
2019-01-16T22:21:34.934Z,80.47
2019-01-16T22:24:03.300Z,79.97
2019-01-16T22:26:43.536Z,80.37
2019-01-16T22:29:16.632Z,80.60
2019-01-16T22:31:54.891Z,80.59
2019-01-16T22:34:28.223Z,80.82
2019-01-16T22:37:07.593Z,80.62
2019-01-16T22:39:41.293Z,81.15
2019-01-16T22:42:23.918Z,80.71
2019-01-16T22:44:57.111Z,80.89
2019-01-16T22:47:27.108Z,81.11
2019-01-16T22:50:00.169Z,81.26
2019-01-16T22:52:31.112Z,81.35
2019-01-16T22:55:04.259Z,81.19
2019-01-16T22:57:32.494Z,80.91
2019-01-16T23:00:04.275Z,81.63
2019-01-16T23:02:49.603Z,81.78
2019-01-16T23:05:32.990Z,82.78
2019-01-16T23:08:01.191Z,83.36
2019-01-16T23:10:29.720Z,83.71
2019-01-16T23:13:09.402Z,83.92
2019-01-16T23:15:53.622Z,84.82
2019-01-16T23:18:35.992Z,85.95
2019-01-16T23:21:13.540Z,86.82
2019-01-16T23:23:54.786Z,87.68
2019-01-16T23:26:25.746Z,87.49
2019-01-16T23:29:09.023Z,88.30
2019-01-16T23:31:42.060Z,88.18
2019-01-16T23:34:19.426Z,87.69
2019-01-16T23:36:52.343Z,88.03
2019-01-16T23:39:19.873Z,87.93
2019-01-16T23:42:03.000Z,88.79
2019-01-16T23:44:31.815Z,89.62
2019-01-16T23:46:59.748Z,89.99
2019-01-16T23:49:42.090Z,89.85
2019-01-16T23:52:24.416Z,90.71
2019-01-16T23:54:54.395Z,90.96
2019-01-16T23:57:21.820Z,90.60
